sensor_id;sensor_type;location;lat;lon;timestamp;temperature;humidity
41884;DHT22;27566;50.930;5.328;2023-10-19T00:01:21;16.50;92.10
41884;DHT22;27566;50.930;5.328;2023-10-19T00:03:52;16.50;92.00
41884;DHT22;27566;50.930;5.328;2023-10-19T00:06:22;16.50;92.10
41884;DHT22;27566;50.930;5.328;2023-10-19T00:08:49;16.50;92.10
41884;DHT22;27566;50.930;5.328;2023-10-19T00:11:18;16.50;92.10
41884;DHT22;27566;50.930;5.328;2023-10-19T00:13:52;16.60;91.90
41884;DHT22;27566;50.930;5.328;2023-10-19T00:16:24;16.60;92.00
41884;DHT22;27566;50.930;5.328;2023-10-19T00:19:01;16.60;92.00
41884;DHT22;27566;50.930;5.328;2023-10-19T00:21:29;16.60;92.00
41884;DHT22;27566;50.930;5.328;2023-10-19T00:23:56;16.60;92.00
41884;DHT22;27566;50.930;5.328;2023-10-19T00:26:23;16.60;92.10
41884;DHT22;27566;50.930;5.328;2023-10-19T00:28:55;16.60;92.20
41884;DHT22;27566;50.930;5.328;2023-10-19T00:31:27;16.60;92.20
41884;DHT22;27566;50.930;5.328;2023-10-19T00:33:54;16.70;92.30
41884;DHT22;27566;50.930;5.328;2023-10-19T00:36:21;16.70;92.30
41884;DHT22;27566;50.930;5.328;2023-10-19T00:38:48;16.70;92.30
41884;DHT22;27566;50.930;5.328;2023-10-19T00:41:23;16.70;92.30
41884;DHT22;27566;50.930;5.328;2023-10-19T00:43:58;16.80;92.20
41884;DHT22;27566;50.930;5.328;2023-10-19T00:46:36;16.80;92.20
41884;DHT22;27566;50.930;5.328;2023-10-19T00:49:09;16.90;91.80
41884;DHT22;27566;50.930;5.328;2023-10-19T00:51:56;16.90;92.00
41884;DHT22;27566;50.930;5.328;2023-10-19T00:54:32;16.90;92.00
41884;DHT22;27566;50.930;5.328;2023-10-19T00:57:05;17.00;91.80
41884;DHT22;27566;50.930;5.328;2023-10-19T00:59:37;17.00;91.90
41884;DHT22;27566;50.930;5.328;2023-10-19T01:02:09;17.10;92.00
41884;DHT22;27566;50.930;5.328;2023-10-19T01:04:56;17.10;92.10
41884;DHT22;27566;50.930;5.328;2023-10-19T01:07:29;17.10;91.60
41884;DHT22;27566;50.930;5.328;2023-10-19T01:09:56;17.10;91.80
41884;DHT22;27566;50.930;5.328;2023-10-19T01:12:27;17.20;91.70
41884;DHT22;27566;50.930;5.328;2023-10-19T01:15:11;17.20;91.60
41884;DHT22;27566;50.930;5.328;2023-10-19T01:17:45;17.20;91.60
41884;DHT22;27566;50.930;5.328;2023-10-19T01:20:22;17.20;91.30
41884;DHT22;27566;50.930;5.328;2023-10-19T01:23:08;17.20;91.30
41884;DHT22;27566;50.930;5.328;2023-10-19T01:25:44;17.30;90.80
41884;DHT22;27566;50.930;5.328;2023-10-19T01:28:20;17.30;91.00
41884;DHT22;27566;50.930;5.328;2023-10-19T01:31:11;17.30;91.00
41884;DHT22;27566;50.930;5.328;2023-10-19T01:33:48;17.20;91.00
41884;DHT22;27566;50.930;5.328;2023-10-19T01:36:15;17.30;91.00
41884;DHT22;27566;50.930;5.328;2023-10-19T01:38:47;17.20;90.90
41884;DHT22;27566;50.930;5.328;2023-10-19T01:41:13;17.20;91.00
41884;DHT22;27566;50.930;5.328;2023-10-19T01:43:43;17.30;90.80
41884;DHT22;27566;50.930;5.328;2023-10-19T01:46:11;17.20;90.90
41884;DHT22;27566;50.930;5.328;2023-10-19T01:48:42;17.20;91.00
41884;DHT22;27566;50.930;5.328;2023-10-19T01:51:09;17.20;90.90
41884;DHT22;27566;50.930;5.328;2023-10-19T01:53:42;17.20;90.80
41884;DHT22;27566;50.930;5.328;2023-10-19T01:56:13;17.20;90.90
41884;DHT22;27566;50.930;5.328;2023-10-19T01:58:41;17.20;90.40
41884;DHT22;27566;50.930;5.328;2023-10-19T02:01:08;17.30;90.20
41884;DHT22;27566;50.930;5.328;2023-10-19T02:03:41;17.20;90.50
41884;DHT22;27566;50.930;5.328;2023-10-19T02:06:11;17.20;90.60
41884;DHT22;27566;50.930;5.328;2023-10-19T02:08:51;17.20;90.50
41884;DHT22;27566;50.930;5.328;2023-10-19T02:11:25;17.20;90.10
41884;DHT22;27566;50.930;5.328;2023-10-19T02:13:52;17.20;90.40
41884;DHT22;27566;50.930;5.328;2023-10-19T02:16:20;17.20;90.50
41884;DHT22;27566;50.930;5.328;2023-10-19T02:18:50;17.10;90.50
41884;DHT22;27566;50.930;5.328;2023-10-19T02:21:17;17.20;90.60
41884;DHT22;27566;50.930;5.328;2023-10-19T02:23:54;17.10;90.60
41884;DHT22;27566;50.930;5.328;2023-10-19T02:26:21;17.10;90.40
41884;DHT22;27566;50.930;5.328;2023-10-19T02:28:52;17.10;90.60
41884;DHT22;27566;50.930;5.328;2023-10-19T02:31:19;17.10;90.60
41884;DHT22;27566;50.930;5.328;2023-10-19T02:33:53;17.10;90.70
41884;DHT22;27566;50.930;5.328;2023-10-19T02:36:26;17.10;90.20
41884;DHT22;27566;50.930;5.328;2023-10-19T02:39:00;17.10;90.50
41884;DHT22;27566;50.930;5.328;2023-10-19T02:41:30;17.10;90.60
41884;DHT22;27566;50.930;5.328;2023-10-19T02:43:56;17.10;90.60
41884;DHT22;27566;50.930;5.328;2023-10-19T02:46:34;17.10;90.20
41884;DHT22;27566;50.930;5.328;2023-10-19T02:49:06;17.10;90.20
41884;DHT22;27566;50.930;5.328;2023-10-19T02:51:40;17.10;90.20
41884;DHT22;27566;50.930;5.328;2023-10-19T02:54:08;17.00;90.20
41884;DHT22;27566;50.930;5.328;2023-10-19T02:56:35;17.00;90.40
41884;DHT22;27566;50.930;5.328;2023-10-19T02:59:01;17.00;90.40
41884;DHT22;27566;50.930;5.328;2023-10-19T03:01:30;17.00;90.60
41884;DHT22;27566;50.930;5.328;2023-10-19T03:04:01;17.00;90.50
41884;DHT22;27566;50.930;5.328;2023-10-19T03:06:29;17.00;90.40
41884;DHT22;27566;50.930;5.328;2023-10-19T03:09:05;17.00;90.40
41884;DHT22;27566;50.930;5.328;2023-10-19T03:11:42;17.00;90.50
41884;DHT22;27566;50.930;5.328;2023-10-19T03:14:09;17.00;90.60
41884;DHT22;27566;50.930;5.328;2023-10-19T03:16:39;16.90;90.60
41884;DHT22;27566;50.930;5.328;2023-10-19T03:19:07;16.90;90.40
41884;DHT22;27566;50.930;5.328;2023-10-19T03:21:34;16.80;90.40
41884;DHT22;27566;50.930;5.328;2023-10-19T03:24:11;16.70;90.50
41884;DHT22;27566;50.930;5.328;2023-10-19T03:26:49;16.70;90.40
41884;DHT22;27566;50.930;5.328;2023-10-19T03:29:16;16.60;90.30
41884;DHT22;27566;50.930;5.328;2023-10-19T03:31:48;16.50;90.10
41884;DHT22;27566;50.930;5.328;2023-10-19T03:34:14;16.40;90.30
41884;DHT22;27566;50.930;5.328;2023-10-19T03:36:43;16.30;90.40
41884;DHT22;27566;50.930;5.328;2023-10-19T03:39:10;16.10;90.50
41884;DHT22;27566;50.930;5.328;2023-10-19T03:41:41;16.00;90.60
41884;DHT22;27566;50.930;5.328;2023-10-19T03:44:13;15.90;90.70
41884;DHT22;27566;50.930;5.328;2023-10-19T03:46:45;15.80;90.80
41884;DHT22;27566;50.930;5.328;2023-10-19T03:49:25;15.70;90.70
41884;DHT22;27566;50.930;5.328;2023-10-19T03:52:01;15.70;90.90
41884;DHT22;27566;50.930;5.328;2023-10-19T03:54:46;15.60;91.10
41884;DHT22;27566;50.930;5.328;2023-10-19T03:57:17;15.50;91.20
41884;DHT22;27566;50.930;5.328;2023-10-19T03:59:51;15.50;91.40
41884;DHT22;27566;50.930;5.328;2023-10-19T04:02:23;15.60;91.50
41884;DHT22;27566;50.930;5.328;2023-10-19T04:04:49;15.60;91.70
41884;DHT22;27566;50.930;5.328;2023-10-19T04:07:16;15.60;91.80
41884;DHT22;27566;50.930;5.328;2023-10-19T04:09:54;15.70;91.80
41884;DHT22;27566;50.930;5.328;2023-10-19T04:12:33;15.70;91.70
41884;DHT22;27566;50.930;5.328;2023-10-19T04:15:02;15.70;91.80
41884;DHT22;27566;50.930;5.328;2023-10-19T04:17:44;15.80;91.80
41884;DHT22;27566;50.930;5.328;2023-10-19T04:20:17;15.80;91.50
41884;DHT22;27566;50.930;5.328;2023-10-19T04:22:44;15.80;91.60
41884;DHT22;27566;50.930;5.328;2023-10-19T04:25:11;15.80;91.50
41884;DHT22;27566;50.930;5.328;2023-10-19T04:27:45;15.90;91.50
41884;DHT22;27566;50.930;5.328;2023-10-19T04:30:15;15.80;91.50
41884;DHT22;27566;50.930;5.328;2023-10-19T04:32:45;15.90;91.40
41884;DHT22;27566;50.930;5.328;2023-10-19T04:35:15;15.90;91.50
41884;DHT22;27566;50.930;5.328;2023-10-19T04:37:50;15.90;91.50
41884;DHT22;27566;50.930;5.328;2023-10-19T04:40:18;16.00;91.40
41884;DHT22;27566;50.930;5.328;2023-10-19T04:42:45;16.00;91.50
41884;DHT22;27566;50.930;5.328;2023-10-19T04:45:11;16.10;91.80
41884;DHT22;27566;50.930;5.328;2023-10-19T04:47:38;16.10;91.50
41884;DHT22;27566;50.930;5.328;2023-10-19T04:50:05;16.20;91.30
41884;DHT22;27566;50.930;5.328;2023-10-19T04:52:32;16.20;91.30
41884;DHT22;27566;50.930;5.328;2023-10-19T04:54:59;16.30;91.30
41884;DHT22;27566;50.930;5.328;2023-10-19T04:57:25;16.30;90.90
41884;DHT22;27566;50.930;5.328;2023-10-19T04:59:54;16.40;91.00
41884;DHT22;27566;50.930;5.328;2023-10-19T05:02:21;16.40;90.70
41884;DHT22;27566;50.930;5.328;2023-10-19T05:04:47;16.40;90.90
41884;DHT22;27566;50.930;5.328;2023-10-19T05:07:13;16.40;90.60
41884;DHT22;27566;50.930;5.328;2023-10-19T05:09:43;16.50;90.70
41884;DHT22;27566;50.930;5.328;2023-10-19T05:12:10;16.50;90.80
41884;DHT22;27566;50.930;5.328;2023-10-19T05:14:37;16.50;90.60
41884;DHT22;27566;50.930;5.328;2023-10-19T05:17:03;16.50;90.50
41884;DHT22;27566;50.930;5.328;2023-10-19T05:19:34;16.50;90.60
41884;DHT22;27566;50.930;5.328;2023-10-19T05:22:01;16.50;90.50
41884;DHT22;27566;50.930;5.328;2023-10-19T05:24:28;16.50;90.40
41884;DHT22;27566;50.930;5.328;2023-10-19T05:26:54;16.60;90.40
41884;DHT22;27566;50.930;5.328;2023-10-19T05:29:23;16.60;90.50
41884;DHT22;27566;50.930;5.328;2023-10-19T05:31:53;16.60;90.40
41884;DHT22;27566;50.930;5.328;2023-10-19T05:34:23;16.60;90.30
41884;DHT22;27566;50.930;5.328;2023-10-19T05:36:49;16.60;90.30
41884;DHT22;27566;50.930;5.328;2023-10-19T05:39:16;16.70;90.30
41884;DHT22;27566;50.930;5.328;2023-10-19T05:41:44;16.70;90.20
41884;DHT22;27566;50.930;5.328;2023-10-19T05:44:10;16.70;90.20
41884;DHT22;27566;50.930;5.328;2023-10-19T05:46:36;16.70;90.10
41884;DHT22;27566;50.930;5.328;2023-10-19T05:49:02;16.70;90.10
41884;DHT22;27566;50.930;5.328;2023-10-19T05:51:30;16.70;90.00
41884;DHT22;27566;50.930;5.328;2023-10-19T05:53:56;16.70;90.00
41884;DHT22;27566;50.930;5.328;2023-10-19T05:56:30;16.70;90.00
41884;DHT22;27566;50.930;5.328;2023-10-19T05:58:57;16.70;90.00
41884;DHT22;27566;50.930;5.328;2023-10-19T06:01:24;16.70;89.50
41884;DHT22;27566;50.930;5.328;2023-10-19T06:03:50;16.70;89.70
41884;DHT22;27566;50.930;5.328;2023-10-19T06:06:17;16.80;89.70
41884;DHT22;27566;50.930;5.328;2023-10-19T06:08:42;16.80;89.70
41884;DHT22;27566;50.930;5.328;2023-10-19T06:11:09;16.80;89.60
41884;DHT22;27566;50.930;5.328;2023-10-19T06:13:35;16.80;89.40
41884;DHT22;27566;50.930;5.328;2023-10-19T06:16:00;16.80;89.30
41884;DHT22;27566;50.930;5.328;2023-10-19T06:18:26;16.80;89.30
41884;DHT22;27566;50.930;5.328;2023-10-19T06:20:55;16.80;89.30
41884;DHT22;27566;50.930;5.328;2023-10-19T06:23:21;16.90;89.00
41884;DHT22;27566;50.930;5.328;2023-10-19T06:25:47;16.90;88.80
41884;DHT22;27566;50.930;5.328;2023-10-19T06:28:14;16.90;88.80
41884;DHT22;27566;50.930;5.328;2023-10-19T06:30:40;17.00;88.00
41884;DHT22;27566;50.930;5.328;2023-10-19T06:33:06;17.00;88.10
41884;DHT22;27566;50.930;5.328;2023-10-19T06:35:33;17.00;88.20
41884;DHT22;27566;50.930;5.328;2023-10-19T06:38:03;17.00;88.00
41884;DHT22;27566;50.930;5.328;2023-10-19T06:40:29;17.00;87.80
41884;DHT22;27566;50.930;5.328;2023-10-19T06:42:57;17.00;87.80
41884;DHT22;27566;50.930;5.328;2023-10-19T06:45:24;17.00;87.70
41884;DHT22;27566;50.930;5.328;2023-10-19T06:47:51;17.00;87.80
41884;DHT22;27566;50.930;5.328;2023-10-19T06:50:19;17.00;87.70
41884;DHT22;27566;50.930;5.328;2023-10-19T06:52:46;17.00;87.70
41884;DHT22;27566;50.930;5.328;2023-10-19T06:55:14;17.00;87.60
41884;DHT22;27566;50.930;5.328;2023-10-19T06:57:48;17.10;87.60
41884;DHT22;27566;50.930;5.328;2023-10-19T07:00:21;17.10;87.60
41884;DHT22;27566;50.930;5.328;2023-10-19T07:02:49;17.10;87.40
41884;DHT22;27566;50.930;5.328;2023-10-19T07:05:16;17.10;87.20
41884;DHT22;27566;50.930;5.328;2023-10-19T07:07:56;17.20;87.10
41884;DHT22;27566;50.930;5.328;2023-10-19T07:10:25;17.20;87.00
41884;DHT22;27566;50.930;5.328;2023-10-19T07:12:54;17.30;86.90
41884;DHT22;27566;50.930;5.328;2023-10-19T07:15:24;17.30;86.50
41884;DHT22;27566;50.930;5.328;2023-10-19T07:17:51;17.40;86.20
41884;DHT22;27566;50.930;5.328;2023-10-19T07:20:20;17.40;86.00
41884;DHT22;27566;50.930;5.328;2023-10-19T07:22:58;17.40;85.90
41884;DHT22;27566;50.930;5.328;2023-10-19T07:25:46;17.40;85.90
41884;DHT22;27566;50.930;5.328;2023-10-19T07:28:14;17.50;85.50
41884;DHT22;27566;50.930;5.328;2023-10-19T07:30:41;17.50;85.40
41884;DHT22;27566;50.930;5.328;2023-10-19T07:33:08;17.60;85.10
41884;DHT22;27566;50.930;5.328;2023-10-19T07:35:36;17.60;84.80
41884;DHT22;27566;50.930;5.328;2023-10-19T07:38:05;17.60;84.00
41884;DHT22;27566;50.930;5.328;2023-10-19T07:40:36;17.60;84.10
41884;DHT22;27566;50.930;5.328;2023-10-19T07:43:02;17.60;84.20
41884;DHT22;27566;50.930;5.328;2023-10-19T07:45:32;17.60;84.00
41884;DHT22;27566;50.930;5.328;2023-10-19T07:48:00;17.60;83.60
41884;DHT22;27566;50.930;5.328;2023-10-19T07:50:43;17.60;83.90
41884;DHT22;27566;50.930;5.328;2023-10-19T07:53:10;17.60;83.80
41884;DHT22;27566;50.930;5.328;2023-10-19T07:55:36;17.60;83.80
41884;DHT22;27566;50.930;5.328;2023-10-19T07:58:04;17.60;84.00
41884;DHT22;27566;50.930;5.328;2023-10-19T08:00:30;17.60;84.00
41884;DHT22;27566;50.930;5.328;2023-10-19T08:02:56;17.60;84.00
41884;DHT22;27566;50.930;5.328;2023-10-19T08:05:24;17.60;83.80
41884;DHT22;27566;50.930;5.328;2023-10-19T08:07:49;17.60;83.80
41884;DHT22;27566;50.930;5.328;2023-10-19T08:10:18;17.70;83.90
41884;DHT22;27566;50.930;5.328;2023-10-19T08:12:46;17.70;83.80
41884;DHT22;27566;50.930;5.328;2023-10-19T08:15:16;17.80;83.70
41884;DHT22;27566;50.930;5.328;2023-10-19T08:17:45;17.90;83.50
41884;DHT22;27566;50.930;5.328;2023-10-19T08:20:13;17.90;83.40
41884;DHT22;27566;50.930;5.328;2023-10-19T08:22:43;18.00;83.30
41884;DHT22;27566;50.930;5.328;2023-10-19T08:25:12;18.10;83.20
41884;DHT22;27566;50.930;5.328;2023-10-19T08:27:49;18.20;82.70
41884;DHT22;27566;50.930;5.328;2023-10-19T08:30:21;18.40;82.00
41884;DHT22;27566;50.930;5.328;2023-10-19T08:32:47;18.50;81.10
41884;DHT22;27566;50.930;5.328;2023-10-19T08:35:17;18.50;80.60
41884;DHT22;27566;50.930;5.328;2023-10-19T08:37:46;18.60;80.20
41884;DHT22;27566;50.930;5.328;2023-10-19T08:40:13;18.60;79.80
41884;DHT22;27566;50.930;5.328;2023-10-19T08:42:44;18.70;78.80
41884;DHT22;27566;50.930;5.328;2023-10-19T08:45:11;18.90;78.50
41884;DHT22;27566;50.930;5.328;2023-10-19T08:47:56;19.00;78.50
41884;DHT22;27566;50.930;5.328;2023-10-19T08:50:31;19.20;78.20
41884;DHT22;27566;50.930;5.328;2023-10-19T08:52:59;19.40;77.90
41884;DHT22;27566;50.930;5.328;2023-10-19T08:55:25;19.60;77.10
41884;DHT22;27566;50.930;5.328;2023-10-19T08:57:51;19.80;76.40
41884;DHT22;27566;50.930;5.328;2023-10-19T09:00:19;20.00;75.60
41884;DHT22;27566;50.930;5.328;2023-10-19T09:02:45;20.00;74.70
41884;DHT22;27566;50.930;5.328;2023-10-19T09:05:12;20.00;74.40
41884;DHT22;27566;50.930;5.328;2023-10-19T09:07:52;20.00;74.00
41884;DHT22;27566;50.930;5.328;2023-10-19T09:10:22;20.00;73.70
41884;DHT22;27566;50.930;5.328;2023-10-19T09:13:08;20.00;73.70
41884;DHT22;27566;50.930;5.328;2023-10-19T09:15:36;20.10;73.90
41884;DHT22;27566;50.930;5.328;2023-10-19T09:18:31;20.10;73.40
41884;DHT22;27566;50.930;5.328;2023-10-19T09:20:57;20.20;73.10
41884;DHT22;27566;50.930;5.328;2023-10-19T09:23:34;20.30;72.40
41884;DHT22;27566;50.930;5.328;2023-10-19T09:26:01;20.50;71.60
41884;DHT22;27566;50.930;5.328;2023-10-19T09:28:29;20.60;71.50
41884;DHT22;27566;50.930;5.328;2023-10-19T09:30:56;20.70;71.30
41884;DHT22;27566;50.930;5.328;2023-10-19T09:33:22;20.80;70.90
41884;DHT22;27566;50.930;5.328;2023-10-19T09:35:50;21.00;70.60
41884;DHT22;27566;50.930;5.328;2023-10-19T09:38:19;21.10;70.20
41884;DHT22;27566;50.930;5.328;2023-10-19T09:40:50;21.20;69.70
41884;DHT22;27566;50.930;5.328;2023-10-19T09:43:24;21.10;69.20
41884;DHT22;27566;50.930;5.328;2023-10-19T09:45:54;21.10;68.90
41884;DHT22;27566;50.930;5.328;2023-10-19T09:48:24;21.20;68.90
41884;DHT22;27566;50.930;5.328;2023-10-19T09:50:54;21.20;68.70
41884;DHT22;27566;50.930;5.328;2023-10-19T09:53:29;21.20;68.60
41884;DHT22;27566;50.930;5.328;2023-10-19T09:55:57;21.30;68.40
41884;DHT22;27566;50.930;5.328;2023-10-19T09:58:27;21.40;68.10
41884;DHT22;27566;50.930;5.328;2023-10-19T10:00:57;21.50;68.00
41884;DHT22;27566;50.930;5.328;2023-10-19T10:03:42;21.60;67.60
41884;DHT22;27566;50.930;5.328;2023-10-19T10:06:09;21.80;67.40
41884;DHT22;27566;50.930;5.328;2023-10-19T10:08:43;21.90;66.70
41884;DHT22;27566;50.930;5.328;2023-10-19T10:11:28;22.00;66.20
41884;DHT22;27566;50.930;5.328;2023-10-19T10:13:58;22.20;65.40
41884;DHT22;27566;50.930;5.328;2023-10-19T10:16:28;22.30;65.40
41884;DHT22;27566;50.930;5.328;2023-10-19T10:19:00;22.40;64.80
41884;DHT22;27566;50.930;5.328;2023-10-19T10:21:27;22.50;64.60
41884;DHT22;27566;50.930;5.328;2023-10-19T10:23:59;22.50;64.30
41884;DHT22;27566;50.930;5.328;2023-10-19T10:26:27;22.50;64.20
41884;DHT22;27566;50.930;5.328;2023-10-19T10:29:09;22.40;64.20
41884;DHT22;27566;50.930;5.328;2023-10-19T10:31:44;22.30;64.30
41884;DHT22;27566;50.930;5.328;2023-10-19T10:37:08;22.10;64.70
41884;DHT22;27566;50.930;5.328;2023-10-19T10:39:35;22.00;64.50
41884;DHT22;27566;50.930;5.328;2023-10-19T10:42:07;22.00;65.10
41884;DHT22;27566;50.930;5.328;2023-10-19T10:44:47;22.20;65.40
41884;DHT22;27566;50.930;5.328;2023-10-19T10:47:22;22.50;65.30
41884;DHT22;27566;50.930;5.328;2023-10-19T10:49:54;22.80;64.40
41884;DHT22;27566;50.930;5.328;2023-10-19T10:52:31;23.10;64.20
41884;DHT22;27566;50.930;5.328;2023-10-19T10:55:15;23.50;63.60
41884;DHT22;27566;50.930;5.328;2023-10-19T10:57:44;23.70;62.40
41884;DHT22;27566;50.930;5.328;2023-10-19T11:00:14;23.80;61.60
41884;DHT22;27566;50.930;5.328;2023-10-19T11:02:41;23.80;61.20
41884;DHT22;27566;50.930;5.328;2023-10-19T11:05:16;23.80;60.70
41884;DHT22;27566;50.930;5.328;2023-10-19T11:08:06;23.60;60.60
41884;DHT22;27566;50.930;5.328;2023-10-19T11:10:33;23.40;61.00
41884;DHT22;27566;50.930;5.328;2023-10-19T11:13:07;23.30;61.20
41884;DHT22;27566;50.930;5.328;2023-10-19T11:15:34;23.10;61.50
41884;DHT22;27566;50.930;5.328;2023-10-19T11:18:00;23.00;61.80
41884;DHT22;27566;50.930;5.328;2023-10-19T11:20:27;22.90;62.30
41884;DHT22;27566;50.930;5.328;2023-10-19T11:22:54;22.90;62.50
41884;DHT22;27566;50.930;5.328;2023-10-19T11:25:29;23.10;62.80
41884;DHT22;27566;50.930;5.328;2023-10-19T11:27:56;23.20;62.40
41884;DHT22;27566;50.930;5.328;2023-10-19T11:30:24;23.40;62.00
41884;DHT22;27566;50.930;5.328;2023-10-19T11:32:50;23.40;61.80
41884;DHT22;27566;50.930;5.328;2023-10-19T11:35:19;23.40;61.70
41884;DHT22;27566;50.930;5.328;2023-10-19T11:37:52;23.20;61.70
41884;DHT22;27566;50.930;5.328;2023-10-19T11:40:22;23.10;62.70
41884;DHT22;27566;50.930;5.328;2023-10-19T11:42:49;23.00;62.40
41884;DHT22;27566;50.930;5.328;2023-10-19T11:45:16;22.90;63.20
41884;DHT22;27566;50.930;5.328;2023-10-19T11:47:45;22.80;63.90
41884;DHT22;27566;50.930;5.328;2023-10-19T11:50:11;22.70;64.60
41884;DHT22;27566;50.930;5.328;2023-10-19T11:52:42;22.60;65.30
41884;DHT22;27566;50.930;5.328;2023-10-19T11:55:08;22.50;65.90
41884;DHT22;27566;50.930;5.328;2023-10-19T11:57:35;22.40;65.80
41884;DHT22;27566;50.930;5.328;2023-10-19T12:00:03;22.20;66.50
41884;DHT22;27566;50.930;5.328;2023-10-19T12:02:35;22.20;67.30
41884;DHT22;27566;50.930;5.328;2023-10-19T12:05:04;22.10;68.10
41884;DHT22;27566;50.930;5.328;2023-10-19T12:07:30;22.00;69.00
41884;DHT22;27566;50.930;5.328;2023-10-19T12:09:59;21.80;70.00
41884;DHT22;27566;50.930;5.328;2023-10-19T12:12:25;21.60;70.80
41884;DHT22;27566;50.930;5.328;2023-10-19T12:14:51;21.40;71.80
41884;DHT22;27566;50.930;5.328;2023-10-19T12:17:19;21.20;72.70
41884;DHT22;27566;50.930;5.328;2023-10-19T12:19:47;21.00;73.60
41884;DHT22;27566;50.930;5.328;2023-10-19T12:22:13;21.50;74.70
41884;DHT22;27566;50.930;5.328;2023-10-19T12:24:39;20.70;74.90
41884;DHT22;27566;50.930;5.328;2023-10-19T12:27:05;20.70;75.50
41884;DHT22;27566;50.930;5.328;2023-10-19T12:29:33;20.60;75.70
41884;DHT22;27566;50.930;5.328;2023-10-19T12:31:59;20.60;75.60
41884;DHT22;27566;50.930;5.328;2023-10-19T12:34:26;20.50;75.70
41884;DHT22;27566;50.930;5.328;2023-10-19T12:36:56;20.40;76.20
41884;DHT22;27566;50.930;5.328;2023-10-19T12:39:24;20.20;76.60
41884;DHT22;27566;50.930;5.328;2023-10-19T12:42:10;20.10;77.30
41884;DHT22;27566;50.930;5.328;2023-10-19T12:44:36;20.00;78.00
41884;DHT22;27566;50.930;5.328;2023-10-19T12:47:05;19.80;78.50
41884;DHT22;27566;50.930;5.328;2023-10-19T12:49:42;19.80;78.80
41884;DHT22;27566;50.930;5.328;2023-10-19T12:52:08;19.70;79.00
41884;DHT22;27566;50.930;5.328;2023-10-19T12:54:36;19.70;79.60
41884;DHT22;27566;50.930;5.328;2023-10-19T12:57:03;19.60;79.80
41884;DHT22;27566;50.930;5.328;2023-10-19T12:59:32;19.60;80.20
41884;DHT22;27566;50.930;5.328;2023-10-19T13:01:58;19.50;80.50
41884;DHT22;27566;50.930;5.328;2023-10-19T13:04:25;19.40;80.80
41884;DHT22;27566;50.930;5.328;2023-10-19T13:06:51;19.40;81.20
41884;DHT22;27566;50.930;5.328;2023-10-19T13:09:24;19.40;81.60
41884;DHT22;27566;50.930;5.328;2023-10-19T13:11:57;19.50;81.90
41884;DHT22;27566;50.930;5.328;2023-10-19T13:14:23;19.60;82.30
41884;DHT22;27566;50.930;5.328;2023-10-19T13:16:49;19.70;82.20
41884;DHT22;27566;50.930;5.328;2023-10-19T13:19:17;19.90;82.20
41884;DHT22;27566;50.930;5.328;2023-10-19T13:21:50;20.10;81.60
41884;DHT22;27566;50.930;5.328;2023-10-19T13:24:17;20.30;81.10
41884;DHT22;27566;50.930;5.328;2023-10-19T13:26:43;20.50;80.40
41884;DHT22;27566;50.930;5.328;2023-10-19T13:29:13;20.60;80.30
41884;DHT22;27566;50.930;5.328;2023-10-19T13:31:41;20.70;78.80
41884;DHT22;27566;50.930;5.328;2023-10-19T13:34:06;20.60;78.30
41884;DHT22;27566;50.930;5.328;2023-10-19T13:36:36;20.60;78.10
41884;DHT22;27566;50.930;5.328;2023-10-19T13:39:04;20.60;77.90
41884;DHT22;27566;50.930;5.328;2023-10-19T13:41:31;20.70;78.00
41884;DHT22;27566;50.930;5.328;2023-10-19T13:43:57;20.70;77.40
41884;DHT22;27566;50.930;5.328;2023-10-19T13:46:23;20.80;77.60
41884;DHT22;27566;50.930;5.328;2023-10-19T13:48:50;20.90;77.80
41884;DHT22;27566;50.930;5.328;2023-10-19T13:51:17;21.20;77.80
41884;DHT22;27566;50.930;5.328;2023-10-19T13:53:44;21.40;76.80
41884;DHT22;27566;50.930;5.328;2023-10-19T13:56:11;21.50;76.10
41884;DHT22;27566;50.930;5.328;2023-10-19T13:58:38;21.50;75.90
41884;DHT22;27566;50.930;5.328;2023-10-19T14:01:08;21.40;75.60
41884;DHT22;27566;50.930;5.328;2023-10-19T14:03:35;21.40;75.70
41884;DHT22;27566;50.930;5.328;2023-10-19T14:06:03;21.50;75.60
41884;DHT22;27566;50.930;5.328;2023-10-19T14:08:29;21.60;76.10
41884;DHT22;27566;50.930;5.328;2023-10-19T14:11:05;21.70;74.80
41884;DHT22;27566;50.930;5.328;2023-10-19T14:13:32;21.70;74.30
41884;DHT22;27566;50.930;5.328;2023-10-19T14:15:58;21.80;73.90
41884;DHT22;27566;50.930;5.328;2023-10-19T14:18:24;21.70;73.70
41884;DHT22;27566;50.930;5.328;2023-10-19T14:20:49;21.60;73.70
41884;DHT22;27566;50.930;5.328;2023-10-19T14:23:15;21.50;73.70
41884;DHT22;27566;50.930;5.328;2023-10-19T14:25:41;21.50;73.80
41884;DHT22;27566;50.930;5.328;2023-10-19T14:28:08;21.60;74.10
41884;DHT22;27566;50.930;5.328;2023-10-19T14:30:35;21.60;73.90
41884;DHT22;27566;50.930;5.328;2023-10-19T14:33:01;21.60;73.50
41884;DHT22;27566;50.930;5.328;2023-10-19T14:35:28;21.50;73.50
41884;DHT22;27566;50.930;5.328;2023-10-19T14:37:55;21.40;73.70
41884;DHT22;27566;50.930;5.328;2023-10-19T14:40:28;21.50;73.40
41884;DHT22;27566;50.930;5.328;2023-10-19T14:42:55;21.50;73.70
41884;DHT22;27566;50.930;5.328;2023-10-19T14:45:23;21.50;73.80
41884;DHT22;27566;50.930;5.328;2023-10-19T14:47:52;21.60;73.60
41884;DHT22;27566;50.930;5.328;2023-10-19T14:50:20;21.80;73.00
41884;DHT22;27566;50.930;5.328;2023-10-19T14:52:49;21.90;72.20
41884;DHT22;27566;50.930;5.328;2023-10-19T14:55:15;22.00;71.80
41884;DHT22;27566;50.930;5.328;2023-10-19T14:57:43;21.80;71.60
41884;DHT22;27566;50.930;5.328;2023-10-19T15:00:12;21.70;71.40
41884;DHT22;27566;50.930;5.328;2023-10-19T15:02:45;21.50;71.60
41884;DHT22;27566;50.930;5.328;2023-10-19T15:05:11;21.40;72.30
41884;DHT22;27566;50.930;5.328;2023-10-19T15:07:46;21.20;72.50
41884;DHT22;27566;50.930;5.328;2023-10-19T15:10:18;21.00;73.20
41884;DHT22;27566;50.930;5.328;2023-10-19T15:12:44;20.90;73.80
41884;DHT22;27566;50.930;5.328;2023-10-19T15:15:11;20.80;74.20
41884;DHT22;27566;50.930;5.328;2023-10-19T15:17:37;20.90;74.50
41884;DHT22;27566;50.930;5.328;2023-10-19T15:20:08;20.90;74.60
41884;DHT22;27566;50.930;5.328;2023-10-19T15:22:45;21.00;74.80
41884;DHT22;27566;50.930;5.328;2023-10-19T15:25:13;21.00;74.80
41884;DHT22;27566;50.930;5.328;2023-10-19T15:27:41;21.00;75.00
41884;DHT22;27566;50.930;5.328;2023-10-19T15:30:09;21.00;75.20
41884;DHT22;27566;50.930;5.328;2023-10-19T15:32:39;21.00;74.80
41884;DHT22;27566;50.930;5.328;2023-10-19T15:35:13;20.90;74.60
41884;DHT22;27566;50.930;5.328;2023-10-19T15:37:42;20.80;74.90
41884;DHT22;27566;50.930;5.328;2023-10-19T15:40:11;20.70;75.90
41884;DHT22;27566;50.930;5.328;2023-10-19T15:42:41;20.70;75.60
41884;DHT22;27566;50.930;5.328;2023-10-19T15:45:09;20.50;75.70
41884;DHT22;27566;50.930;5.328;2023-10-19T15:47:37;20.40;75.80
41884;DHT22;27566;50.930;5.328;2023-10-19T15:50:03;20.20;76.30